createdAt,value
2023-03-11T00:00:47.153Z,52.50
2023-03-11T00:03:17.265Z,52.13
2023-03-11T00:05:46.344Z,51.79
2023-03-11T00:08:17.204Z,52.57
2023-03-11T00:10:46.191Z,51.76
2023-03-11T00:13:15.409Z,51.78
2023-03-11T00:15:45.325Z,52.50
2023-03-11T00:18:12.283Z,52.56
2023-03-11T00:20:42.494Z,52.16
2023-03-11T00:23:11.154Z,51.88
2023-03-11T00:25:39.549Z,52.09
2023-03-11T00:28:10.693Z,52.11
2023-03-11T00:30:39.192Z,52.26
2023-03-11T00:33:07.299Z,51.56
2023-03-11T00:35:35.679Z,51.94
2023-03-11T00:38:06.724Z,52.72
2023-03-11T00:40:35.187Z,52.37
2023-03-11T00:43:03.250Z,51.85
2023-03-11T00:45:31.150Z,52.14
2023-03-11T00:47:58.694Z,51.24
2023-03-11T00:50:31.783Z,51.69
2023-03-11T00:52:59.808Z,51.77
2023-03-11T00:55:30.000Z,51.81
2023-03-11T00:58:01.445Z,51.81
2023-03-11T01:00:35.289Z,51.53
2023-03-11T01:03:03.730Z,50.96
2023-03-11T01:05:33.187Z,51.11
2023-03-11T01:08:01.785Z,50.79
2023-03-11T01:10:30.563Z,51.16
2023-03-11T01:12:57.832Z,51.27
2023-03-11T01:15:32.047Z,51.12
2023-03-11T01:17:59.384Z,51.66
2023-03-11T01:20:26.517Z,51.36
2023-03-11T01:22:53.556Z,50.85
2023-03-11T01:25:23.349Z,51.26
2023-03-11T01:27:50.951Z,51.10
2023-03-11T01:30:21.502Z,52.02
2023-03-11T01:32:48.761Z,51.59
2023-03-11T01:35:18.688Z,52.14
2023-03-11T01:37:47.493Z,51.58
2023-03-11T01:40:21.675Z,51.81
2023-03-11T01:42:48.658Z,52.25
2023-03-11T01:45:49.753Z,51.73
2023-03-11T01:48:19.299Z,52.53
2023-03-11T01:50:50.554Z,52.68
2023-03-11T01:53:18.146Z,52.72
2023-03-11T01:55:47.051Z,52.33
2023-03-11T01:58:42.231Z,53.09
2023-03-11T02:01:09.170Z,52.70
2023-03-11T02:03:41.325Z,53.27
2023-03-11T02:06:12.377Z,53.38
2023-03-11T02:08:41.038Z,52.73
2023-03-11T02:11:12.662Z,53.19
2023-03-11T02:13:41.808Z,53.06
2023-03-11T02:16:09.098Z,54.25
2023-03-11T02:18:37.308Z,53.67
2023-03-11T02:21:07.434Z,54.07
2023-03-11T02:23:46.406Z,54.08
2023-03-11T02:26:25.939Z,54.41
2023-03-11T02:28:54.659Z,55.27
2023-03-11T02:31:23.086Z,55.94
2023-03-11T02:33:53.222Z,55.30
2023-03-11T02:36:32.993Z,56.18
2023-03-11T02:39:00.920Z,56.23
2023-03-11T02:41:28.568Z,56.16
2023-03-11T02:43:56.290Z,56.98
2023-03-11T02:46:24.376Z,56.95
2023-03-11T02:48:53.514Z,57.19
2023-03-11T02:51:20.563Z,57.46
2023-03-11T02:53:53.205Z,58.65
2023-03-11T02:56:20.486Z,58.72
2023-03-11T02:58:48.358Z,59.27
2023-03-11T03:01:15.898Z,60.16
2023-03-11T03:03:44.815Z,60.41
2023-03-11T03:06:12.663Z,60.40
2023-03-11T03:08:39.716Z,60.29
2023-03-11T03:11:06.757Z,59.84
2023-03-11T03:13:33.750Z,61.27
2023-03-11T03:16:01.155Z,60.17
2023-03-11T03:18:28.284Z,60.43
2023-03-11T03:20:55.337Z,62.11
2023-03-11T03:23:23.166Z,62.96
2023-03-11T03:25:50.278Z,64.62
2023-03-11T03:28:17.407Z,63.88
2023-03-11T03:30:46.055Z,64.76
2023-03-11T03:33:14.202Z,64.43
2023-03-11T03:35:43.562Z,66.00
2023-03-11T03:38:16.986Z,67.23
2023-03-11T03:40:48.042Z,68.25
2023-03-11T03:43:17.925Z,66.65
2023-03-11T03:45:46.366Z,68.54
2023-03-11T03:48:13.370Z,69.34
2023-03-11T03:50:44.295Z,70.67
2023-03-11T03:53:14.890Z,71.42
2023-03-11T03:55:42.498Z,71.50
2023-03-11T03:58:10.478Z,71.49
2023-03-11T04:00:37.910Z,72.06
2023-03-11T04:03:05.626Z,71.10
2023-03-11T04:05:40.766Z,70.70
2023-03-11T04:08:07.872Z,71.48
2023-03-11T04:10:35.518Z,70.83
2023-03-11T04:13:03.120Z,71.61
2023-03-11T04:15:30.291Z,73.82
2023-03-11T04:17:57.218Z,73.15
2023-03-11T04:20:24.342Z,74.15
2023-03-11T04:22:52.763Z,74.40
2023-03-11T04:25:22.936Z,74.02
2023-03-11T04:27:52.390Z,73.76
2023-03-11T04:30:20.655Z,73.04
2023-03-11T04:32:49.879Z,73.21
2023-03-11T04:35:17.852Z,73.44
2023-03-11T04:37:45.700Z,73.99
2023-03-11T04:40:12.898Z,73.47
2023-03-11T04:42:40.365Z,75.13
2023-03-11T04:45:08.413Z,73.10
2023-03-11T04:47:35.983Z,72.82
2023-03-11T04:50:04.933Z,72.73
2023-03-11T04:52:32.176Z,73.69
2023-03-11T04:54:59.237Z,73.58
2023-03-11T04:57:26.781Z,73.54
2023-03-11T04:59:53.809Z,74.18
2023-03-11T05:02:20.866Z,73.45
2023-03-11T05:04:53.976Z,73.55
2023-03-11T05:07:21.332Z,72.70
2023-03-11T05:09:48.562Z,72.82
2023-03-11T05:12:15.832Z,73.04
2023-03-11T05:14:47.419Z,73.35
2023-03-11T05:17:15.045Z,72.30
2023-03-11T05:19:42.259Z,72.52
2023-03-11T05:22:17.134Z,73.39
2023-03-11T05:24:44.715Z,73.10
2023-03-11T05:27:11.639Z,72.63
2023-03-11T05:29:39.840Z,73.43
2023-03-11T05:32:10.032Z,72.96
2023-03-11T05:34:37.702Z,72.67
2023-03-11T05:37:05.139Z,72.90
2023-03-11T05:39:32.529Z,72.50
2023-03-11T05:42:00.002Z,72.86
2023-03-11T05:44:27.965Z,71.70
2023-03-11T05:46:56.431Z,73.51
2023-03-11T05:49:23.790Z,72.60
2023-03-11T05:51:56.129Z,73.21
2023-03-11T05:54:26.162Z,73.44
2023-03-11T05:56:54.391Z,72.69
2023-03-11T05:59:21.380Z,73.32
2023-03-11T06:01:55.299Z,73.74
2023-03-11T06:04:23.565Z,72.85
2023-03-11T06:06:50.682Z,71.65
2023-03-11T06:09:20.248Z,71.81
2023-03-11T06:11:47.710Z,72.88
2023-03-11T06:14:16.603Z,71.19
2023-03-11T06:16:46.185Z,71.22
2023-03-11T06:19:13.392Z,72.09
2023-03-11T06:21:44.975Z,71.34
2023-03-11T06:24:12.069Z,72.44
2023-03-11T06:26:39.073Z,73.01
2023-03-11T06:29:11.694Z,72.90
2023-03-11T06:31:40.318Z,73.38
2023-03-11T06:34:11.829Z,72.90
2023-03-11T06:36:39.137Z,72.83
2023-03-11T06:39:06.120Z,72.27
2023-03-11T06:41:35.263Z,73.45
2023-03-11T06:44:05.063Z,73.41
2023-03-11T06:46:32.979Z,73.36
2023-03-11T06:49:00.030Z,73.82
2023-03-11T06:51:28.772Z,73.80
2023-03-11T06:53:55.885Z,75.16
2023-03-11T06:56:24.218Z,73.21
2023-03-11T06:58:59.271Z,74.08
2023-03-11T07:01:30.754Z,73.09
2023-03-11T07:03:59.632Z,72.98
2023-03-11T07:06:28.884Z,72.76
2023-03-11T07:09:04.031Z,72.21
2023-03-11T07:11:32.362Z,74.00
2023-03-11T07:14:11.966Z,73.55
2023-03-11T07:16:43.506Z,74.06
2023-03-11T07:19:17.807Z,73.86
2023-03-11T07:21:44.847Z,74.05
2023-03-11T07:27:01.180Z,72.64
2023-03-11T07:29:28.371Z,72.73
2023-03-11T07:31:55.331Z,71.25
2023-03-11T07:34:22.290Z,70.63
2023-03-11T07:36:56.308Z,71.23
2023-03-11T07:39:25.774Z,70.60
2023-03-11T07:41:52.713Z,70.18
2023-03-11T07:44:19.768Z,70.34
2023-03-11T07:46:49.989Z,70.84
2023-03-11T07:49:20.149Z,71.38
2023-03-11T07:51:49.773Z,72.34
2023-03-11T07:54:18.358Z,72.58
2023-03-11T07:56:55.866Z,71.96
2023-03-11T08:02:15.424Z,71.18
2023-03-11T08:04:45.053Z,71.59
2023-03-11T08:07:13.065Z,71.11
2023-03-11T08:09:40.048Z,70.81
2023-03-11T08:12:09.529Z,70.89
2023-03-11T08:14:38.586Z,71.87
2023-03-11T08:17:07.898Z,71.51
2023-03-11T08:19:34.867Z,72.86
2023-03-11T08:22:09.871Z,72.76
2023-03-11T08:24:37.133Z,72.21
2023-03-11T08:27:09.284Z,72.42
2023-03-11T08:29:38.307Z,72.33
2023-03-11T08:32:05.584Z,71.20
2023-03-11T08:34:35.774Z,70.78
2023-03-11T08:37:07.455Z,70.73
2023-03-11T08:39:34.546Z,71.23
2023-03-11T08:42:04.999Z,70.32
2023-03-11T08:44:34.426Z,69.69
2023-03-11T08:47:03.500Z,69.73
2023-03-11T08:49:35.459Z,70.17
2023-03-11T08:52:05.986Z,71.34
2023-03-11T08:54:39.136Z,70.35
2023-03-11T08:57:06.182Z,71.08
2023-03-11T08:59:38.959Z,70.30
2023-03-11T09:02:10.165Z,70.60
2023-03-11T09:04:40.010Z,70.38
2023-03-11T09:07:09.318Z,71.31
2023-03-11T09:09:49.253Z,71.49
2023-03-11T09:15:01.861Z,73.09
2023-03-11T09:20:19.210Z,76.00
2023-03-11T09:22:49.318Z,77.59
2023-03-11T09:25:18.808Z,78.51
2023-03-11T09:27:45.758Z,77.71
2023-03-11T09:30:32.646Z,76.68
2023-03-11T09:33:25.056Z,77.06
2023-03-11T09:35:54.925Z,76.04
2023-03-11T09:38:22.039Z,76.54
2023-03-11T09:40:58.860Z,75.98
2023-03-11T09:43:25.605Z,76.47
2023-03-11T09:46:21.273Z,74.60
2023-03-11T09:48:59.685Z,75.33
2023-03-11T09:51:31.426Z,75.59
2023-03-11T09:54:04.440Z,75.21
2023-03-11T09:56:34.736Z,74.50
2023-03-11T09:59:07.171Z,74.26
2023-03-11T10:01:37.885Z,74.04
2023-03-11T10:04:13.318Z,74.91
2023-03-11T10:06:42.970Z,73.53
2023-03-11T10:09:13.040Z,73.42
2023-03-11T10:11:47.145Z,74.22
2023-03-11T10:14:29.017Z,73.06
2023-03-11T10:17:08.182Z,73.22
2023-03-11T10:19:53.337Z,72.87
2023-03-11T10:22:20.240Z,73.29
2023-03-11T10:25:14.702Z,72.28
2023-03-11T10:27:49.416Z,72.70
2023-03-11T10:30:34.041Z,72.50
2023-03-11T10:33:19.189Z,72.12
2023-03-11T10:35:51.788Z,72.99
2023-03-11T10:38:23.105Z,73.23
2023-03-11T10:40:55.330Z,72.10
2023-03-11T10:43:29.268Z,72.49
2023-03-11T10:45:56.233Z,73.69
2023-03-11T10:48:25.849Z,72.95
2023-03-11T10:51:18.304Z,72.16
2023-03-11T10:53:49.341Z,72.70
2023-03-11T10:56:32.869Z,72.62
2023-03-11T10:59:01.022Z,72.16
2023-03-11T11:01:31.966Z,71.73
2023-03-11T11:04:01.862Z,71.69
2023-03-11T11:06:29.001Z,72.32
2023-03-11T11:09:17.516Z,72.63
2023-03-11T11:12:05.677Z,72.65
2023-03-11T11:14:50.220Z,73.69
2023-03-11T11:17:26.547Z,73.34
2023-03-11T11:19:54.615Z,72.59
2023-03-11T11:22:23.376Z,72.31
2023-03-11T11:24:53.423Z,72.53
2023-03-11T11:27:29.370Z,72.41
2023-03-11T11:30:08.918Z,72.61
2023-03-11T11:32:37.183Z,73.20
2023-03-11T11:35:07.376Z,73.23
2023-03-11T11:37:37.873Z,72.61
2023-03-11T11:40:16.709Z,72.93
2023-03-11T11:42:49.041Z,73.42
2023-03-11T11:45:29.442Z,73.95
2023-03-11T11:48:01.169Z,74.42
2023-03-11T11:50:34.236Z,74.57
2023-03-11T11:53:13.016Z,74.08
2023-03-11T11:55:49.041Z,74.14
2023-03-11T11:58:16.363Z,73.94
2023-03-11T12:01:00.314Z,74.71
2023-03-11T12:03:45.740Z,75.33
2023-03-11T12:06:27.747Z,74.47
2023-03-11T12:09:14.851Z,74.57
2023-03-11T12:11:56.278Z,75.12
2023-03-11T12:15:04.008Z,74.67
2023-03-11T12:17:32.964Z,75.23
2023-03-11T12:20:05.385Z,75.14
2023-03-11T12:22:54.103Z,75.67
2023-03-11T12:25:41.518Z,75.41
2023-03-11T12:28:20.392Z,75.63
2023-03-11T12:31:10.361Z,75.44
2023-03-11T12:33:40.224Z,75.12
2023-03-11T12:36:20.757Z,75.50
2023-03-11T12:38:49.250Z,75.92
2023-03-11T12:41:16.285Z,76.33
2023-03-11T12:43:43.296Z,76.41
2023-03-11T12:46:18.091Z,76.49
2023-03-11T12:48:52.689Z,75.98
2023-03-11T12:51:34.511Z,76.74
2023-03-11T12:54:22.268Z,77.30
2023-03-11T12:57:15.304Z,76.84
2023-03-11T13:00:01.155Z,76.62
2023-03-11T13:03:02.852Z,76.46
2023-03-11T13:05:47.956Z,76.68
2023-03-11T13:08:17.864Z,76.81
2023-03-11T13:10:50.290Z,77.08
2023-03-11T13:13:38.264Z,76.37
2023-03-11T13:16:14.261Z,76.42
2023-03-11T13:18:42.955Z,77.07
2023-03-11T13:21:38.194Z,77.92
2023-03-11T13:24:25.950Z,77.70
2023-03-11T13:26:59.444Z,77.40
2023-03-11T13:29:35.572Z,77.08
2023-03-11T13:32:43.218Z,77.01
2023-03-11T13:35:28.866Z,76.95
2023-03-11T13:38:21.157Z,76.81
2023-03-11T13:40:48.317Z,76.80
2023-03-11T13:43:24.858Z,77.82
2023-03-11T13:46:05.666Z,78.29
2023-03-11T13:48:42.129Z,77.63
2023-03-11T13:51:25.715Z,77.68
2023-03-11T13:54:13.947Z,78.93
2023-03-11T13:56:51.397Z,77.87
2023-03-11T13:59:30.464Z,78.25
2023-03-11T14:02:00.822Z,79.40
2023-03-11T14:04:38.541Z,78.98
2023-03-11T14:07:24.262Z,78.97
2023-03-11T14:09:51.540Z,79.83
2023-03-11T14:12:24.089Z,80.09
2023-03-11T14:15:09.457Z,80.60
2023-03-11T14:17:36.550Z,80.69
2023-03-11T14:20:16.634Z,81.92
2023-03-11T14:22:49.722Z,81.34
2023-03-11T14:25:41.124Z,81.55
2023-03-11T14:28:20.323Z,81.77
2023-03-11T14:31:02.286Z,81.91
2023-03-11T14:33:29.923Z,81.92
2023-03-11T14:36:04.745Z,81.97
2023-03-11T14:38:33.316Z,82.46
2023-03-11T14:41:05.335Z,82.41
2023-03-11T14:43:44.569Z,83.07
2023-03-11T14:46:19.237Z,82.91
2023-03-11T14:48:47.235Z,82.73
2023-03-11T14:51:25.185Z,82.90
2023-03-11T14:54:07.034Z,82.67
2023-03-11T14:56:40.446Z,82.48
2023-03-11T14:59:32.399Z,82.44
2023-03-11T15:02:24.075Z,82.76
2023-03-11T15:04:52.262Z,82.01
2023-03-11T15:07:20.410Z,82.23
2023-03-11T15:09:48.474Z,81.68
2023-03-11T15:12:50.810Z,81.43
2023-03-11T15:15:35.385Z,81.40
2023-03-11T15:18:05.447Z,81.43
2023-03-11T15:20:40.713Z,81.48
2023-03-11T15:23:20.930Z,81.55
2023-03-11T15:25:50.276Z,81.72
2023-03-11T15:28:30.258Z,81.79
2023-03-11T15:31:15.925Z,82.20
2023-03-11T15:33:44.102Z,82.38
2023-03-11T15:36:32.729Z,81.82
2023-03-11T15:39:21.249Z,82.07
2023-03-11T15:42:07.621Z,81.63
2023-03-11T15:44:58.176Z,82.23
2023-03-11T15:47:25.579Z,82.33
2023-03-11T15:49:54.949Z,82.38
2023-03-11T15:52:22.081Z,83.43
2023-03-11T15:54:55.793Z,83.57
2023-03-11T15:57:31.360Z,83.11
2023-03-11T16:00:00.394Z,83.57
2023-03-11T16:02:32.620Z,83.84
2023-03-11T16:05:01.104Z,83.87
2023-03-11T16:07:39.265Z,83.94
2023-03-11T16:10:08.624Z,83.95
2023-03-11T16:12:35.806Z,83.80
2023-03-11T16:15:04.272Z,83.96
2023-03-11T16:17:48.588Z,84.12
2023-03-11T16:20:16.412Z,84.92
2023-03-11T16:22:45.815Z,84.84
2023-03-11T16:25:44.426Z,85.41
2023-03-11T16:28:16.316Z,85.41
2023-03-11T16:30:48.585Z,85.82
2023-03-11T16:33:15.548Z,86.67
2023-03-11T16:35:45.643Z,86.39
2023-03-11T16:38:19.509Z,86.08
2023-03-11T16:40:59.732Z,85.93
2023-03-11T16:43:29.057Z,86.41
2023-03-11T16:45:59.139Z,86.35
2023-03-11T16:48:28.419Z,86.02
2023-03-11T16:50:55.378Z,86.63
2023-03-11T16:53:22.373Z,86.44
2023-03-11T16:55:49.346Z,86.60
2023-03-11T16:58:16.633Z,86.60
2023-03-11T17:00:43.834Z,86.54
2023-03-11T17:03:12.782Z,86.09
2023-03-11T17:05:39.944Z,86.17
2023-03-11T17:08:07.034Z,86.10
2023-03-11T17:10:38.326Z,86.47
2023-03-11T17:13:06.445Z,86.49
2023-03-11T17:15:35.371Z,86.58
2023-03-11T17:18:02.557Z,86.23
2023-03-11T17:20:29.475Z,86.09
2023-03-11T17:22:56.556Z,86.45
2023-03-11T17:25:23.558Z,85.85
2023-03-11T17:27:50.508Z,85.88
2023-03-11T17:30:35.565Z,85.75
2023-03-11T17:33:03.374Z,86.63
2023-03-11T17:35:30.394Z,86.07
2023-03-11T17:37:57.276Z,85.78
2023-03-11T17:40:24.648Z,85.68
2023-03-11T17:42:51.604Z,86.01
2023-03-11T17:45:18.628Z,86.24
2023-03-11T17:47:45.572Z,86.16
2023-03-11T17:50:13.218Z,86.42
2023-03-11T17:52:40.191Z,86.35
2023-03-11T17:55:07.750Z,86.22
2023-03-11T17:57:42.923Z,85.69
2023-03-11T18:00:14.803Z,85.90
2023-03-11T18:02:42.512Z,86.49
2023-03-11T18:05:09.719Z,85.94
2023-03-11T18:07:41.049Z,87.37
2023-03-11T18:10:09.092Z,86.88
2023-03-11T18:12:36.308Z,86.76
2023-03-11T18:15:06.273Z,86.38
2023-03-11T18:17:35.229Z,86.07
2023-03-11T18:20:02.452Z,86.56
2023-03-11T18:22:30.066Z,86.29
2023-03-11T18:25:04.383Z,86.90
2023-03-11T18:27:31.516Z,86.55
2023-03-11T18:30:38.379Z,86.79
2023-03-11T18:33:08.129Z,86.50
2023-03-11T18:35:35.279Z,86.19
2023-03-11T18:38:02.270Z,86.91
2023-03-11T18:40:29.186Z,86.92
2023-03-11T18:42:58.432Z,88.13
2023-03-11T18:45:25.364Z,87.73
2023-03-11T18:47:53.189Z,88.07
2023-03-11T18:50:20.758Z,87.62
2023-03-11T18:52:55.516Z,88.09
2023-03-11T18:55:24.846Z,88.74
2023-03-11T18:57:53.282Z,88.68
2023-03-11T19:00:23.683Z,88.96
2023-03-11T19:02:52.507Z,89.35
2023-03-11T19:05:20.121Z,89.95
2023-03-11T19:07:49.952Z,89.77
2023-03-11T19:10:20.153Z,89.84
2023-03-11T19:12:49.508Z,89.67
2023-03-11T19:15:18.650Z,90.49
2023-03-11T19:17:54.513Z,90.90
2023-03-11T19:20:31.904Z,91.54
2023-03-11T19:22:58.928Z,91.42
2023-03-11T19:25:28.066Z,92.51
2023-03-11T19:27:55.542Z,92.45
2023-03-11T19:30:28.561Z,91.59
2023-03-11T19:32:55.787Z,92.78
2023-03-11T19:35:24.105Z,92.15
2023-03-11T19:37:57.109Z,93.15
2023-03-11T19:40:24.501Z,94.13
2023-03-11T19:42:51.951Z,93.63
2023-03-11T19:45:19.613Z,94.22
2023-03-11T19:47:52.574Z,94.79
2023-03-11T19:50:20.061Z,95.19
2023-03-11T19:52:50.020Z,95.26
2023-03-11T19:55:17.205Z,94.97
2023-03-11T19:57:44.288Z,95.09
2023-03-11T20:00:12.516Z,94.81
2023-03-11T20:02:39.870Z,94.52
2023-03-11T20:05:07.689Z,95.28
2023-03-11T20:07:34.775Z,95.16
2023-03-11T20:10:01.822Z,96.87
2023-03-11T20:12:30.093Z,97.62
2023-03-11T20:14:57.175Z,98.89
2023-03-11T20:17:24.276Z,100.00
2023-03-11T20:19:51.488Z,99.75
2023-03-11T20:22:20.129Z,100.00
2023-03-11T20:24:47.201Z,99.37
2023-03-11T20:27:15.252Z,99.92
2023-03-11T20:29:42.330Z,99.93
2023-03-11T20:32:09.395Z,99.82
2023-03-11T20:34:39.389Z,100.00
2023-03-11T20:37:07.015Z,100.00
2023-03-11T20:39:35.527Z,99.83
2023-03-11T20:42:03.380Z,100.00
2023-03-11T20:44:31.572Z,99.61
2023-03-11T20:46:58.886Z,99.75
2023-03-11T20:49:26.859Z,100.00
2023-03-11T20:51:54.443Z,100.00
2023-03-11T20:54:22.360Z,100.00
2023-03-11T20:56:51.042Z,100.00
2023-03-11T20:59:18.996Z,100.00
2023-03-11T21:01:46.686Z,100.00
2023-03-11T21:04:16.409Z,100.00
2023-03-11T21:06:44.277Z,100.00
2023-03-11T21:09:14.767Z,100.00
2023-03-11T21:11:43.137Z,100.00
2023-03-11T21:14:11.769Z,100.00
2023-03-11T21:16:39.531Z,100.00
2023-03-11T21:19:08.962Z,100.00
2023-03-11T21:21:36.973Z,100.00
2023-03-11T21:24:04.866Z,100.00
2023-03-11T21:26:32.930Z,100.00
2023-03-11T21:29:01.014Z,100.00
2023-03-11T21:31:29.627Z,100.00
2023-03-11T21:34:02.706Z,100.00
2023-03-11T21:36:30.474Z,100.00
2023-03-11T21:38:58.390Z,100.00
2023-03-11T21:41:27.820Z,100.00
2023-03-11T21:43:59.782Z,100.00
2023-03-11T21:46:31.588Z,100.00
2023-03-11T21:48:59.794Z,100.00
2023-03-11T21:51:27.051Z,100.00
2023-03-11T21:53:54.292Z,100.00
2023-03-11T21:56:22.024Z,100.00
2023-03-11T21:58:50.134Z,100.00
2023-03-11T22:01:17.895Z,100.00
2023-03-11T22:03:45.584Z,100.00
2023-03-11T22:06:13.557Z,100.00
2023-03-11T22:08:42.832Z,100.00
2023-03-11T22:11:17.920Z,100.00
2023-03-11T22:13:48.119Z,100.00
2023-03-11T22:16:22.807Z,100.00
2023-03-11T22:18:53.946Z,100.00
2023-03-11T22:21:21.174Z,100.00
2023-03-11T22:23:48.472Z,100.00
2023-03-11T22:26:16.254Z,100.00
2023-03-11T22:28:43.777Z,100.00
2023-03-11T22:31:13.683Z,100.00
2023-03-11T22:33:41.066Z,100.00
2023-03-11T22:36:09.624Z,100.00
2023-03-11T22:38:39.422Z,100.00
2023-03-11T22:41:08.483Z,100.00
2023-03-11T22:43:36.132Z,100.00
2023-03-11T22:46:04.808Z,100.00
2023-03-11T22:48:35.862Z,100.00
2023-03-11T22:51:05.708Z,100.00
2023-03-11T22:53:32.827Z,100.00
2023-03-11T22:56:00.925Z,100.00
2023-03-11T22:58:27.920Z,100.00
2023-03-11T23:00:54.884Z,100.00
2023-03-11T23:03:21.808Z,100.00
2023-03-11T23:05:48.798Z,100.00
2023-03-11T23:08:16.912Z,100.00
2023-03-11T23:10:46.721Z,100.00
2023-03-11T23:13:14.206Z,100.00
2023-03-11T23:15:42.573Z,100.00
2023-03-11T23:18:14.295Z,100.00
2023-03-11T23:20:42.436Z,100.00
2023-03-11T23:23:10.024Z,100.00
2023-03-11T23:25:36.965Z,100.00
2023-03-11T23:28:05.838Z,100.00
2023-03-11T23:30:33.029Z,100.00
2023-03-11T23:33:02.994Z,100.00
2023-03-11T23:35:31.221Z,100.00
2023-03-11T23:37:58.471Z,100.00
2023-03-11T23:40:25.643Z,100.00
2023-03-11T23:42:53.675Z,100.00
2023-03-11T23:45:20.700Z,100.00
2023-03-11T23:47:47.827Z,100.00
2023-03-11T23:50:15.746Z,100.00
2023-03-11T23:52:42.768Z,100.00
2023-03-11T23:55:10.084Z,100.00
2023-03-11T23:57:37.996Z,100.00
